sensor_id;sensor_type;location;lat;lon;timestamp;pressure;altitude;pressure_sealevel;temperature;humidity
62402;BME280;48440;51.224;22.506;2023-07-24T00:01:45;98548.88;;;21.61;54.54
62402;BME280;48440;51.224;22.506;2023-07-24T00:04:11;98554.06;;;21.62;54.71
62402;BME280;48440;51.224;22.506;2023-07-24T00:06:37;98542.69;;;21.64;54.70
62402;BME280;48440;51.224;22.506;2023-07-24T00:09:06;98542.22;;;21.62;54.60
62402;BME280;48440;51.224;22.506;2023-07-24T00:11:31;98537.84;;;21.61;54.63
62402;BME280;48440;51.224;22.506;2023-07-24T00:13:57;98542.56;;;21.60;54.41
62402;BME280;48440;51.224;22.506;2023-07-24T00:16:23;98545.44;;;21.64;54.26
62402;BME280;48440;51.224;22.506;2023-07-24T00:18:49;98549.81;;;21.65;54.29
62402;BME280;48440;51.224;22.506;2023-07-24T00:21:15;98548.09;;;21.60;54.32
62402;BME280;48440;51.224;22.506;2023-07-24T00:23:43;98554.06;;;21.62;54.38
62402;BME280;48440;51.224;22.506;2023-07-24T00:26:09;98552.22;;;21.66;54.38
62402;BME280;48440;51.224;22.506;2023-07-24T00:28:35;98549.94;;;21.68;54.55
62402;BME280;48440;51.224;22.506;2023-07-24T00:31:01;98557.88;;;21.70;54.46
62402;BME280;48440;51.224;22.506;2023-07-24T00:33:28;98560.28;;;21.72;54.74
62402;BME280;48440;51.224;22.506;2023-07-24T00:35:57;98546.47;;;21.72;54.83
62402;BME280;48440;51.224;22.506;2023-07-24T00:38:23;98549.25;;;21.72;54.51
62402;BME280;48440;51.224;22.506;2023-07-24T00:40:49;98552.00;;;21.72;54.73
62402;BME280;48440;51.224;22.506;2023-07-24T00:43:16;98556.72;;;21.71;55.08
62402;BME280;48440;51.224;22.506;2023-07-24T00:45:45;98553.97;;;21.71;54.85
62402;BME280;48440;51.224;22.506;2023-07-24T00:48:12;98554.75;;;21.72;54.71
62402;BME280;48440;51.224;22.506;2023-07-24T00:50:38;98550.28;;;21.67;54.47
62402;BME280;48440;51.224;22.506;2023-07-24T00:53:04;98555.34;;;21.65;54.74
62402;BME280;48440;51.224;22.506;2023-07-24T00:55:33;98555.34;;;21.65;54.57
62402;BME280;48440;51.224;22.506;2023-07-24T00:57:59;98553.72;;;21.64;55.04
62402;BME280;48440;51.224;22.506;2023-07-24T01:00:34;98554.88;;;21.63;54.78
62402;BME280;48440;51.224;22.506;2023-07-24T01:03:03;98555.22;;;21.61;54.74
62402;BME280;48440;51.224;22.506;2023-07-24T01:05:31;98539.00;;;21.60;54.96
62402;BME280;48440;51.224;22.506;2023-07-24T01:07:57;98542.09;;;21.58;54.84
62402;BME280;48440;51.224;22.506;2023-07-24T01:10:25;98546.94;;;21.61;54.67
62402;BME280;48440;51.224;22.506;2023-07-24T01:13:22;98539.69;;;21.57;54.70
62402;BME280;48440;51.224;22.506;2023-07-24T01:16:00;98547.19;;;21.56;54.89
62402;BME280;48440;51.224;22.506;2023-07-24T01:18:30;98538.09;;;21.56;54.76
62402;BME280;48440;51.224;22.506;2023-07-24T01:20:57;98539.13;;;21.51;54.45
62402;BME280;48440;51.224;22.506;2023-07-24T01:26:30;98538.22;;;21.47;55.06
62402;BME280;48440;51.224;22.506;2023-07-24T01:28:59;98545.69;;;21.47;54.76
62402;BME280;48440;51.224;22.506;2023-07-24T01:31:25;98541.31;;;21.46;55.10
62402;BME280;48440;51.224;22.506;2023-07-24T01:33:56;98534.19;;;21.45;55.33
62402;BME280;48440;51.224;22.506;2023-07-24T01:36:25;98545.22;;;21.45;55.12
62402;BME280;48440;51.224;22.506;2023-07-24T01:38:53;98534.63;;;21.47;55.60
62402;BME280;48440;51.224;22.506;2023-07-24T01:41:19;98535.31;;;21.44;55.49
62402;BME280;48440;51.224;22.506;2023-07-24T01:43:51;98536.13;;;21.44;55.41
62402;BME280;48440;51.224;22.506;2023-07-24T01:51:35;98523.25;;;21.36;55.56
62402;BME280;48440;51.224;22.506;2023-07-24T01:54:16;98520.03;;;21.34;55.66
62402;BME280;48440;51.224;22.506;2023-07-24T01:56:45;98524.28;;;21.31;55.69
62402;BME280;48440;51.224;22.506;2023-07-24T01:59:13;98524.66;;;21.30;55.79
62402;BME280;48440;51.224;22.506;2023-07-24T02:01:47;98521.41;;;21.28;55.74
62402;BME280;48440;51.224;22.506;2023-07-24T02:06:57;98527.28;;;21.26;56.00
62402;BME280;48440;51.224;22.506;2023-07-24T02:09:23;98524.88;;;21.25;55.93
62402;BME280;48440;51.224;22.506;2023-07-24T02:14:24;98513.81;;;21.25;55.92
62402;BME280;48440;51.224;22.506;2023-07-24T02:16:51;98520.16;;;21.25;56.23
62402;BME280;48440;51.224;22.506;2023-07-24T02:19:17;98520.16;;;21.25;56.01
62402;BME280;48440;51.224;22.506;2023-07-24T02:21:47;98522.09;;;21.25;56.14
62402;BME280;48440;51.224;22.506;2023-07-24T02:24:13;98518.19;;;21.26;56.24
62402;BME280;48440;51.224;22.506;2023-07-24T02:26:38;98517.84;;;21.27;55.98
62402;BME280;48440;51.224;22.506;2023-07-24T02:29:09;98517.03;;;21.27;56.05
62402;BME280;48440;51.224;22.506;2023-07-24T02:31:39;98517.03;;;21.27;55.71
62402;BME280;48440;51.224;22.506;2023-07-24T02:34:08;98521.75;;;21.26;56.11
62402;BME280;48440;51.224;22.506;2023-07-24T02:36:36;98515.44;;;21.26;56.00
62402;BME280;48440;51.224;22.506;2023-07-24T02:39:01;98509.47;;;21.24;56.03
62402;BME280;48440;51.224;22.506;2023-07-24T02:41:27;98514.63;;;21.25;56.27
62402;BME280;48440;51.224;22.506;2023-07-24T02:43:55;98511.75;;;21.22;56.29
62402;BME280;48440;51.224;22.506;2023-07-24T02:46:24;98512.56;;;21.22;56.18
62402;BME280;48440;51.224;22.506;2023-07-24T02:48:51;98512.09;;;21.20;56.32
62402;BME280;48440;51.224;22.506;2023-07-24T02:51:19;98515.97;;;21.19;56.35
62402;BME280;48440;51.224;22.506;2023-07-24T03:44:01;98494.59;;;21.16;55.43
62402;BME280;48440;51.224;22.506;2023-07-24T03:46:27;98498.63;;;21.19;55.41
62402;BME280;48440;51.224;22.506;2023-07-24T03:48:55;98493.09;;;21.19;56.05
62402;BME280;48440;51.224;22.506;2023-07-24T03:51:25;98494.41;;;21.21;55.81
62402;BME280;48440;51.224;22.506;2023-07-24T03:56:28;98500.03;;;21.25;55.77
62402;BME280;48440;51.224;22.506;2023-07-24T04:08:04;98511.06;;;21.25;55.88
62402;BME280;48440;51.224;22.506;2023-07-24T04:10:30;98506.34;;;21.25;55.92
62402;BME280;48440;51.224;22.506;2023-07-24T04:12:56;98496.81;;;21.23;56.09
62402;BME280;48440;51.224;22.506;2023-07-24T04:15:31;98497.16;;;21.21;56.60
62402;BME280;48440;51.224;22.506;2023-07-24T04:17:58;98503.81;;;21.20;56.75
62402;BME280;48440;51.224;22.506;2023-07-24T04:20:24;98503.31;;;21.18;56.56
62402;BME280;48440;51.224;22.506;2023-07-24T04:22:49;98507.56;;;21.16;56.90
62402;BME280;48440;51.224;22.506;2023-07-24T04:25:15;98511.94;;;21.17;57.03
62402;BME280;48440;51.224;22.506;2023-07-24T04:27:40;98515.50;;;21.17;57.01
62402;BME280;48440;51.224;22.506;2023-07-24T04:30:07;98502.97;;;21.20;56.94
62402;BME280;48440;51.224;22.506;2023-07-24T04:32:32;98516.78;;;21.20;57.01
62402;BME280;48440;51.224;22.506;2023-07-24T04:34:58;98517.38;;;21.25;57.00
62402;BME280;48440;51.224;22.506;2023-07-24T04:37:23;98513.47;;;21.26;56.81
62402;BME280;48440;51.224;22.506;2023-07-24T04:39:49;98512.22;;;21.24;56.96
62402;BME280;48440;51.224;22.506;2023-07-24T04:42:14;98511.41;;;21.23;57.01
62402;BME280;48440;51.224;22.506;2023-07-24T04:44:40;98525.66;;;21.25;56.78
62402;BME280;48440;51.224;22.506;2023-07-24T04:47:05;98518.19;;;21.26;57.19
62402;BME280;48440;51.224;22.506;2023-07-24T04:49:31;98519.81;;;21.27;57.08
62402;BME280;48440;51.224;22.506;2023-07-24T04:51:58;98515.78;;;21.24;57.30
62402;BME280;48440;51.224;22.506;2023-07-24T04:54:24;98507.16;;;21.26;57.22
62402;BME280;48440;51.224;22.506;2023-07-24T04:56:50;98506.81;;;21.27;57.38
62402;BME280;48440;51.224;22.506;2023-07-24T04:59:15;98500.97;;;21.29;58.02
62402;BME280;48440;51.224;22.506;2023-07-24T05:01:41;98505.75;;;21.32;57.82
62402;BME280;48440;51.224;22.506;2023-07-24T05:04:06;98503.81;;;21.32;57.67
62402;BME280;48440;51.224;22.506;2023-07-24T05:06:32;98515.78;;;21.37;57.71
62402;BME280;48440;51.224;22.506;2023-07-24T05:08:57;98513.94;;;21.41;57.99
62402;BME280;48440;51.224;22.506;2023-07-24T05:11:22;98514.41;;;21.43;57.73
62402;BME280;48440;51.224;22.506;2023-07-24T05:13:48;98518.44;;;21.45;58.08
62402;BME280;48440;51.224;22.506;2023-07-24T05:16:13;98512.69;;;21.50;57.79
62402;BME280;48440;51.224;22.506;2023-07-24T05:18:39;98516.59;;;21.49;57.63
62402;BME280;48440;51.224;22.506;2023-07-24T05:21:04;98511.88;;;21.50;57.91
62402;BME280;48440;51.224;22.506;2023-07-24T05:23:30;98504.06;;;21.52;57.73
62402;BME280;48440;51.224;22.506;2023-07-24T05:26:02;98507.75;;;21.56;57.80
62402;BME280;48440;51.224;22.506;2023-07-24T05:28:29;98513.47;;;21.63;58.01
62402;BME280;48440;51.224;22.506;2023-07-24T05:30:55;98508.53;;;21.68;57.73
62402;BME280;48440;51.224;22.506;2023-07-24T05:33:21;98508.41;;;21.77;57.38
62402;BME280;48440;51.224;22.506;2023-07-24T05:35:48;98508.53;;;21.81;57.02
62402;BME280;48440;51.224;22.506;2023-07-24T05:38:14;98505.84;;;21.84;57.19
62402;BME280;48440;51.224;22.506;2023-07-24T05:40:40;98511.25;;;21.93;57.21
62402;BME280;48440;51.224;22.506;2023-07-24T05:43:05;98503.78;;;22.06;57.41
62402;BME280;48440;51.224;22.506;2023-07-24T05:45:31;98497.03;;;22.31;56.97
62402;BME280;48440;51.224;22.506;2023-07-24T05:47:56;98505.22;;;22.71;55.97
62402;BME280;48440;51.224;22.506;2023-07-24T05:50:21;98499.22;;;23.13;55.43
62402;BME280;48440;51.224;22.506;2023-07-24T05:52:47;98494.22;;;23.50;54.25
62402;BME280;48440;51.224;22.506;2023-07-24T05:55:12;98498.22;;;23.84;53.78
62402;BME280;48440;51.224;22.506;2023-07-24T05:57:38;98490.16;;;24.14;52.91
62402;BME280;48440;51.224;22.506;2023-07-24T06:00:04;98493.84;;;24.37;52.06
62402;BME280;48440;51.224;22.506;2023-07-24T06:02:30;98480.84;;;24.60;52.19
62402;BME280;48440;51.224;22.506;2023-07-24T06:04:56;98482.47;;;24.84;50.91
62402;BME280;48440;51.224;22.506;2023-07-24T06:07:21;98482.81;;;25.02;50.12
62402;BME280;48440;51.224;22.506;2023-07-24T06:09:47;98476.78;;;25.19;49.05
62402;BME280;48440;51.224;22.506;2023-07-24T06:12:12;98486.31;;;25.45;49.46
62402;BME280;48440;51.224;22.506;2023-07-24T06:14:38;98481.66;;;25.52;48.78
62402;BME280;48440;51.224;22.506;2023-07-24T06:17:03;98486.72;;;25.69;47.93
62402;BME280;48440;51.224;22.506;2023-07-24T06:19:29;98479.44;;;25.88;47.82
62402;BME280;48440;51.224;22.506;2023-07-24T06:21:54;98473.25;;;26.01;46.71
62402;BME280;48440;51.224;22.506;2023-07-24T06:24:20;98484.47;;;26.09;46.48
62402;BME280;48440;51.224;22.506;2023-07-24T06:26:46;98479.03;;;26.16;46.23
62402;BME280;48440;51.224;22.506;2023-07-24T06:29:11;98482.22;;;26.18;45.57
62402;BME280;48440;51.224;22.506;2023-07-24T06:31:36;98479.56;;;26.28;45.36
62402;BME280;48440;51.224;22.506;2023-07-24T06:34:02;98474.22;;;26.43;44.73
62402;BME280;48440;51.224;22.506;2023-07-24T06:36:28;98472.16;;;26.36;45.08
62402;BME280;48440;51.224;22.506;2023-07-24T06:38:53;98464.47;;;26.59;45.12
62402;BME280;48440;51.224;22.506;2023-07-24T06:41:19;98465.44;;;26.78;44.96
62402;BME280;48440;51.224;22.506;2023-07-24T06:43:46;98467.31;;;27.03;44.94
62402;BME280;48440;51.224;22.506;2023-07-24T06:46:12;98470.28;;;27.21;44.73
62402;BME280;48440;51.224;22.506;2023-07-24T06:48:37;98469.22;;;27.40;43.81
62402;BME280;48440;51.224;22.506;2023-07-24T06:51:03;98466.94;;;27.56;43.06
62402;BME280;48440;51.224;22.506;2023-07-24T06:53:28;98471.03;;;27.66;42.08
62402;BME280;48440;51.224;22.506;2023-07-24T06:55:53;98469.53;;;27.79;42.26
62402;BME280;48440;51.224;22.506;2023-07-24T06:58:19;98467.22;;;27.95;42.08
62402;BME280;48440;51.224;22.506;2023-07-24T07:00:44;98459.34;;;28.15;42.42
62402;BME280;48440;51.224;22.506;2023-07-24T07:03:10;98462.28;;;28.40;42.65
62402;BME280;48440;51.224;22.506;2023-07-24T07:05:35;98466.28;;;28.46;40.38
62402;BME280;48440;51.224;22.506;2023-07-24T07:08:01;98462.31;;;28.47;39.65
62402;BME280;48440;51.224;22.506;2023-07-24T07:10:26;98465.13;;;28.54;39.77
62402;BME280;48440;51.224;22.506;2023-07-24T07:12:51;98458.75;;;28.64;39.50
62402;BME280;48440;51.224;22.506;2023-07-24T07:15:17;98453.59;;;28.77;39.69
62402;BME280;48440;51.224;22.506;2023-07-24T07:17:43;98449.66;;;28.92;39.19
62402;BME280;48440;51.224;22.506;2023-07-24T07:20:08;98451.25;;;28.86;39.09
62402;BME280;48440;51.224;22.506;2023-07-24T07:22:34;98460.03;;;28.95;39.44
62402;BME280;48440;51.224;22.506;2023-07-24T07:24:59;98445.63;;;28.76;40.24
62402;BME280;48440;51.224;22.506;2023-07-24T07:27:24;98455.50;;;28.41;40.45
62402;BME280;48440;51.224;22.506;2023-07-24T07:29:50;98452.56;;;28.13;40.96
62402;BME280;48440;51.224;22.506;2023-07-24T07:32:15;98451.31;;;27.96;41.64
62402;BME280;48440;51.224;22.506;2023-07-24T07:34:41;98455.22;;;27.84;41.98
62402;BME280;48440;51.224;22.506;2023-07-24T07:37:07;98449.56;;;27.70;41.45
62402;BME280;48440;51.224;22.506;2023-07-24T07:39:32;98446.31;;;27.61;41.51
62402;BME280;48440;51.224;22.506;2023-07-24T07:41:58;98444.28;;;27.58;41.58
62402;BME280;48440;51.224;22.506;2023-07-24T07:44:23;98452.28;;;27.59;42.24
62402;BME280;48440;51.224;22.506;2023-07-24T07:46:49;98456.19;;;27.55;42.34
62402;BME280;48440;51.224;22.506;2023-07-24T07:49:14;98456.97;;;27.48;42.49
62402;BME280;48440;51.224;22.506;2023-07-24T07:51:41;98452.53;;;27.44;43.76
62402;BME280;48440;51.224;22.506;2023-07-24T07:54:06;98456.00;;;27.30;40.79
62402;BME280;48440;51.224;22.506;2023-07-24T07:56:34;98456.72;;;27.20;41.29
62402;BME280;48440;51.224;22.506;2023-07-24T07:59:00;98459.41;;;27.09;40.97
62402;BME280;48440;51.224;22.506;2023-07-24T08:01:26;98452.63;;;27.07;40.26
62402;BME280;48440;51.224;22.506;2023-07-24T08:03:52;98458.97;;;27.00;40.92
62402;BME280;48440;51.224;22.506;2023-07-24T08:06:17;98452.22;;;27.01;41.87
62402;BME280;48440;51.224;22.506;2023-07-24T08:08:43;98451.88;;;27.10;41.25
62402;BME280;48440;51.224;22.506;2023-07-24T08:11:09;98457.41;;;27.06;40.75
62402;BME280;48440;51.224;22.506;2023-07-24T08:13:35;98456.97;;;27.00;41.59
62402;BME280;48440;51.224;22.506;2023-07-24T08:16:04;98460.84;;;26.92;42.43
62402;BME280;48440;51.224;22.506;2023-07-24T08:18:30;98458.31;;;26.80;41.67
62402;BME280;48440;51.224;22.506;2023-07-24T08:20:56;98458.59;;;26.68;42.56
62402;BME280;48440;51.224;22.506;2023-07-24T08:23:22;98466.88;;;26.61;41.80
62402;BME280;48440;51.224;22.506;2023-07-24T08:25:54;98460.47;;;26.57;41.46
62402;BME280;48440;51.224;22.506;2023-07-24T08:28:20;98466.41;;;26.55;41.13
62402;BME280;48440;51.224;22.506;2023-07-24T08:30:46;98459.03;;;26.70;41.25
62402;BME280;48440;51.224;22.506;2023-07-24T08:33:13;98467.88;;;26.83;41.01
62402;BME280;48440;51.224;22.506;2023-07-24T08:35:38;98458.91;;;26.96;40.98
62402;BME280;48440;51.224;22.506;2023-07-24T08:38:04;98462.59;;;27.08;40.83
62402;BME280;48440;51.224;22.506;2023-07-24T08:40:29;98466.63;;;27.14;40.88
62402;BME280;48440;51.224;22.506;2023-07-24T08:42:56;98468.94;;;27.08;41.26
62402;BME280;48440;51.224;22.506;2023-07-24T08:45:23;98472.84;;;26.96;40.09
62402;BME280;48440;51.224;22.506;2023-07-24T08:47:49;98471.16;;;26.92;40.52
62402;BME280;48440;51.224;22.506;2023-07-24T08:50:16;98469.06;;;26.82;40.83
62402;BME280;48440;51.224;22.506;2023-07-24T08:52:42;98466.19;;;26.71;41.82
62402;BME280;48440;51.224;22.506;2023-07-24T08:55:10;98472.84;;;26.63;41.48
62402;BME280;48440;51.224;22.506;2023-07-24T08:57:36;98465.59;;;26.55;41.23
62402;BME280;48440;51.224;22.506;2023-07-24T09:00:03;98467.16;;;26.52;41.41
62402;BME280;48440;51.224;22.506;2023-07-24T09:02:33;98466.78;;;26.54;40.55
62402;BME280;48440;51.224;22.506;2023-07-24T09:05:01;98465.72;;;26.65;41.20
62402;BME280;48440;51.224;22.506;2023-07-24T09:07:30;98461.31;;;26.98;41.43
62402;BME280;48440;51.224;22.506;2023-07-24T09:09:55;98455.00;;;27.52;39.71
62402;BME280;48440;51.224;22.506;2023-07-24T09:12:22;98446.16;;;28.01;39.75
62402;BME280;48440;51.224;22.506;2023-07-24T09:14:49;98450.75;;;28.52;38.60
62402;BME280;48440;51.224;22.506;2023-07-24T09:17:15;98452.06;;;28.94;39.29
62402;BME280;48440;51.224;22.506;2023-07-24T09:19:41;98449.69;;;29.14;38.29
62402;BME280;48440;51.224;22.506;2023-07-24T09:22:11;98444.09;;;29.28;38.40
62402;BME280;48440;51.224;22.506;2023-07-24T09:24:38;98438.53;;;29.42;37.83
62402;BME280;48440;51.224;22.506;2023-07-24T09:27:06;98435.34;;;29.47;37.37
62402;BME280;48440;51.224;22.506;2023-07-24T09:29:33;98435.31;;;29.54;37.34
62402;BME280;48440;51.224;22.506;2023-07-24T09:32:00;98433.34;;;29.58;37.25
62402;BME280;48440;51.224;22.506;2023-07-24T09:34:26;98433.69;;;29.78;36.78
62402;BME280;48440;51.224;22.506;2023-07-24T09:36:52;98442.47;;;29.84;36.65
62402;BME280;48440;51.224;22.506;2023-07-24T09:39:27;98434.09;;;29.77;36.84
62402;BME280;48440;51.224;22.506;2023-07-24T09:41:53;98433.63;;;29.89;36.41
62402;BME280;48440;51.224;22.506;2023-07-24T09:44:20;98428.09;;;29.78;36.11
62402;BME280;48440;51.224;22.506;2023-07-24T09:46:46;98428.91;;;29.68;36.12
62402;BME280;48440;51.224;22.506;2023-07-24T09:49:12;98427.34;;;29.60;35.99
62402;BME280;48440;51.224;22.506;2023-07-24T09:51:38;98425.34;;;29.50;35.58
62402;BME280;48440;51.224;22.506;2023-07-24T09:54:22;98408.19;;;29.48;35.17
62402;BME280;48440;51.224;22.506;2023-07-24T09:56:52;98404.19;;;29.52;35.52
62402;BME280;48440;51.224;22.506;2023-07-24T09:59:19;98404.94;;;29.63;36.55
62402;BME280;48440;51.224;22.506;2023-07-24T10:01:47;98402.13;;;29.78;36.39
62402;BME280;48440;51.224;22.506;2023-07-24T10:04:15;98400.53;;;29.80;35.48
62402;BME280;48440;51.224;22.506;2023-07-24T10:06:42;98389.34;;;29.84;36.33
62402;BME280;48440;51.224;22.506;2023-07-24T10:09:08;98397.00;;;29.55;36.64
62402;BME280;48440;51.224;22.506;2023-07-24T10:11:34;98390.22;;;29.34;37.48
62402;BME280;48440;51.224;22.506;2023-07-24T10:13:59;98391.03;;;29.35;37.90
62402;BME280;48440;51.224;22.506;2023-07-24T10:16:26;98381.84;;;29.42;38.31
62402;BME280;48440;51.224;22.506;2023-07-24T10:18:51;98383.44;;;29.46;38.38
62402;BME280;48440;51.224;22.506;2023-07-24T10:21:16;98378.25;;;29.55;39.43
62402;BME280;48440;51.224;22.506;2023-07-24T10:23:44;98380.63;;;29.60;38.83
62402;BME280;48440;51.224;22.506;2023-07-24T10:26:12;98380.22;;;29.58;38.68
62402;BME280;48440;51.224;22.506;2023-07-24T10:28:39;98371.88;;;29.41;39.14
62402;BME280;48440;51.224;22.506;2023-07-24T10:31:25;98369.47;;;29.25;39.75
62402;BME280;48440;51.224;22.506;2023-07-24T10:33:55;98365.53;;;29.08;39.43
62402;BME280;48440;51.224;22.506;2023-07-24T10:36:36;98366.31;;;28.98;39.74
62402;BME280;48440;51.224;22.506;2023-07-24T10:39:02;98369.91;;;28.91;40.39
62402;BME280;48440;51.224;22.506;2023-07-24T10:41:35;98379.44;;;28.73;40.48
62402;BME280;48440;51.224;22.506;2023-07-24T10:44:01;98371.06;;;28.76;40.31
62402;BME280;48440;51.224;22.506;2023-07-24T10:46:39;98359.91;;;28.87;41.14
62402;BME280;48440;51.224;22.506;2023-07-24T10:49:05;98356.34;;;29.04;40.66
62402;BME280;48440;51.224;22.506;2023-07-24T10:51:31;98353.53;;;29.11;41.33
62402;BME280;48440;51.224;22.506;2023-07-24T10:54:03;98354.72;;;29.24;42.15
62402;BME280;48440;51.224;22.506;2023-07-24T10:56:29;98349.94;;;29.32;42.18
62402;BME280;48440;51.224;22.506;2023-07-24T10:58:55;98341.94;;;29.30;42.52
62402;BME280;48440;51.224;22.506;2023-07-24T11:01:20;98341.16;;;29.12;40.93
62402;BME280;48440;51.224;22.506;2023-07-24T11:03:46;98337.59;;;28.90;41.88
62402;BME280;48440;51.224;22.506;2023-07-24T11:06:14;98331.22;;;28.83;42.05
62402;BME280;48440;51.224;22.506;2023-07-24T11:08:40;98330.78;;;28.74;41.94
62402;BME280;48440;51.224;22.506;2023-07-24T11:11:06;98329.19;;;28.65;41.22
62402;BME280;48440;51.224;22.506;2023-07-24T11:13:32;98318.03;;;28.58;40.87
62402;BME280;48440;51.224;22.506;2023-07-24T11:16:04;98316.81;;;28.42;40.45
62402;BME280;48440;51.224;22.506;2023-07-24T11:18:30;98313.22;;;28.30;41.01
62402;BME280;48440;51.224;22.506;2023-07-24T11:20:56;98317.19;;;28.26;41.88
62402;BME280;48440;51.224;22.506;2023-07-24T11:23:23;98314.81;;;28.24;42.36
62402;BME280;48440;51.224;22.506;2023-07-24T11:25:52;98312.44;;;28.26;42.71
62402;BME280;48440;51.224;22.506;2023-07-24T11:28:21;98315.59;;;28.25;43.43
62402;BME280;48440;51.224;22.506;2023-07-24T11:30:47;98312.44;;;28.26;43.43
62402;BME280;48440;51.224;22.506;2023-07-24T11:33:15;98317.19;;;28.26;43.95
62402;BME280;48440;51.224;22.506;2023-07-24T11:35:41;98315.59;;;28.25;44.87
62402;BME280;48440;51.224;22.506;2023-07-24T11:38:10;98322.72;;;28.15;45.06
62402;BME280;48440;51.224;22.506;2023-07-24T11:40:44;98310.38;;;28.06;44.79
62402;BME280;48440;51.224;22.506;2023-07-24T11:43:17;98318.28;;;27.96;44.97
62402;BME280;48440;51.224;22.506;2023-07-24T11:45:44;98313.09;;;27.91;45.36
62402;BME280;48440;51.224;22.506;2023-07-24T11:48:11;98313.84;;;27.81;45.61
62402;BME280;48440;51.224;22.506;2023-07-24T11:50:45;98310.25;;;27.74;45.52
62402;BME280;48440;51.224;22.506;2023-07-24T11:53:39;98316.19;;;27.68;45.65
62402;BME280;48440;51.224;22.506;2023-07-24T11:56:13;98311.84;;;27.71;45.73
62402;BME280;48440;51.224;22.506;2023-07-24T11:58:39;98309.09;;;27.78;45.74
62402;BME280;48440;51.224;22.506;2023-07-24T12:01:04;98311.84;;;27.82;46.43
62402;BME280;48440;51.224;22.506;2023-07-24T12:03:30;98313.84;;;27.85;46.88
62402;BME280;48440;51.224;22.506;2023-07-24T12:05:55;98308.69;;;27.87;46.48
62402;BME280;48440;51.224;22.506;2023-07-24T12:08:30;98308.31;;;27.88;45.95
62402;BME280;48440;51.224;22.506;2023-07-24T12:10:56;98301.97;;;27.95;45.48
62402;BME280;48440;51.224;22.506;2023-07-24T12:13:21;98304.38;;;28.00;45.79
62402;BME280;48440;51.224;22.506;2023-07-24T12:15:48;98294.00;;;28.08;45.03
62402;BME280;48440;51.224;22.506;2023-07-24T12:18:13;98281.69;;;28.16;44.67
62402;BME280;48440;51.224;22.506;2023-07-24T12:20:38;98288.84;;;28.13;44.86
62402;BME280;48440;51.224;22.506;2023-07-24T12:23:05;98282.47;;;28.13;44.01
62402;BME280;48440;51.224;22.506;2023-07-24T12:25:30;98284.47;;;28.12;43.88
62402;BME280;48440;51.224;22.506;2023-07-24T12:27:56;98276.09;;;28.12;43.07
62402;BME280;48440;51.224;22.506;2023-07-24T12:30:21;98270.91;;;28.11;41.18
62402;BME280;48440;51.224;22.506;2023-07-24T12:32:47;98274.13;;;28.16;41.93
62402;BME280;48440;51.224;22.506;2023-07-24T12:35:12;98254.19;;;28.14;41.47
62402;BME280;48440;51.224;22.506;2023-07-24T12:37:38;98249.81;;;28.17;41.59
62402;BME280;48440;51.224;22.506;2023-07-24T12:40:08;98243.47;;;28.20;42.12
62402;BME280;48440;51.224;22.506;2023-07-24T12:42:34;98251.06;;;28.23;41.96
62402;BME280;48440;51.224;22.506;2023-07-24T12:44:59;98249.06;;;28.27;41.56
62402;BME280;48440;51.224;22.506;2023-07-24T12:47:27;98243.09;;;28.25;40.30
62402;BME280;48440;51.224;22.506;2023-07-24T12:49:53;98253.06;;;28.22;40.54
62402;BME280;48440;51.224;22.506;2023-07-24T12:52:20;98234.69;;;28.18;41.18
62402;BME280;48440;51.224;22.506;2023-07-24T12:54:46;98229.09;;;28.18;42.20
62402;BME280;48440;51.224;22.506;2023-07-24T12:57:12;98231.91;;;28.18;42.95
62402;BME280;48440;51.224;22.506;2023-07-24T12:59:37;98229.50;;;28.16;43.80
62402;BME280;48440;51.224;22.506;2023-07-24T13:02:03;98229.91;;;28.18;43.10
62402;BME280;48440;51.224;22.506;2023-07-24T13:04:28;98223.94;;;28.16;43.04
62402;BME280;48440;51.224;22.506;2023-07-24T13:06:54;98214.75;;;28.16;44.00
62402;BME280;48440;51.224;22.506;2023-07-24T13:09:19;98206.78;;;28.11;43.40
62402;BME280;48440;51.224;22.506;2023-07-24T13:11:45;98213.16;;;28.08;42.88
62402;BME280;48440;51.224;22.506;2023-07-24T13:14:14;98216.75;;;28.12;42.91
62402;BME280;48440;51.224;22.506;2023-07-24T13:16:40;98217.53;;;28.09;43.89
62402;BME280;48440;51.224;22.506;2023-07-24T13:19:05;98209.59;;;28.03;42.76
62402;BME280;48440;51.224;22.506;2023-07-24T13:21:31;98201.19;;;28.07;43.22
62402;BME280;48440;51.224;22.506;2023-07-24T13:23:57;98198.44;;;28.14;44.34
62402;BME280;48440;51.224;22.506;2023-07-24T13:26:22;98185.28;;;28.15;43.43
62402;BME280;48440;51.224;22.506;2023-07-24T13:28:48;98192.84;;;28.14;43.73
62402;BME280;48440;51.224;22.506;2023-07-24T13:31:18;98185.69;;;28.13;43.94
62402;BME280;48440;51.224;22.506;2023-07-24T13:33:44;98188.88;;;28.12;42.14
62402;BME280;48440;51.224;22.506;2023-07-24T13:36:10;98191.25;;;28.13;42.65
62402;BME280;48440;51.224;22.506;2023-07-24T13:38:35;98178.13;;;28.14;41.57
62402;BME280;48440;51.224;22.506;2023-07-24T13:41:01;98168.94;;;28.13;41.30
62402;BME280;48440;51.224;22.506;2023-07-24T13:43:27;98173.31;;;28.11;41.44
62402;BME280;48440;51.224;22.506;2023-07-24T13:45:53;98173.31;;;28.07;41.07
62402;BME280;48440;51.224;22.506;2023-07-24T13:48:20;98170.56;;;28.03;41.02
62402;BME280;48440;51.224;22.506;2023-07-24T13:50:46;98171.34;;;28.04;41.03
62402;BME280;48440;51.224;22.506;2023-07-24T13:53:12;98166.59;;;28.04;41.09
62402;BME280;48440;51.224;22.506;2023-07-24T13:55:37;98168.97;;;28.02;41.62
62402;BME280;48440;51.224;22.506;2023-07-24T13:58:03;98171.75;;;28.02;42.03
62402;BME280;48440;51.224;22.506;2023-07-24T14:00:29;98169.75;;;27.99;41.70
62402;BME280;48440;51.224;22.506;2023-07-24T14:02:54;98167.78;;;28.00;41.91
62402;BME280;48440;51.224;22.506;2023-07-24T14:05:19;98164.19;;;27.99;41.78